sensor_id;sensor_type;location;lat;lon;timestamp;P1;durP1;ratioP1;P2;durP2;ratioP2
20159;SDS011;50187;50.492;12.134;2023-07-09T00:01:43;3.40;;;3.20;;
20159;SDS011;50187;50.492;12.134;2023-07-09T00:04:10;3.50;;;3.30;;
20159;SDS011;50187;50.492;12.134;2023-07-09T00:06:39;3.53;;;3.23;;
20159;SDS011;50187;50.492;12.134;2023-07-09T00:09:10;3.63;;;3.40;;
20159;SDS011;50187;50.492;12.134;2023-07-09T00:11:40;3.90;;;3.60;;
20159;SDS011;50187;50.492;12.134;2023-07-09T00:14:08;3.53;;;3.33;;
20159;SDS011;50187;50.492;12.134;2023-07-09T00:16:36;3.33;;;3.03;;
20159;SDS011;50187;50.492;12.134;2023-07-09T00:19:04;3.90;;;3.60;;
20159;SDS011;50187;50.492;12.134;2023-07-09T00:21:31;3.80;;;3.50;;
20159;SDS011;50187;50.492;12.134;2023-07-09T00:24:03;3.97;;;3.67;;
20159;SDS011;50187;50.492;12.134;2023-07-09T00:26:31;3.67;;;3.33;;
20159;SDS011;50187;50.492;12.134;2023-07-09T00:29:04;3.40;;;3.10;;
20159;SDS011;50187;50.492;12.134;2023-07-09T00:31:30;3.67;;;3.37;;
20159;SDS011;50187;50.492;12.134;2023-07-09T00:33:57;3.70;;;3.40;;
20159;SDS011;50187;50.492;12.134;2023-07-09T00:36:27;3.10;;;2.90;;
20159;SDS011;50187;50.492;12.134;2023-07-09T00:38:55;3.70;;;3.40;;
20159;SDS011;50187;50.492;12.134;2023-07-09T00:41:32;4.10;;;3.77;;
20159;SDS011;50187;50.492;12.134;2023-07-09T00:49:12;3.97;;;3.57;;
20159;SDS011;50187;50.492;12.134;2023-07-09T00:51:44;3.37;;;3.10;;
20159;SDS011;50187;50.492;12.134;2023-07-09T00:54:26;3.63;;;3.40;;
20159;SDS011;50187;50.492;12.134;2023-07-09T00:56:58;3.50;;;3.20;;
20159;SDS011;50187;50.492;12.134;2023-07-09T00:59:28;3.57;;;3.27;;
20159;SDS011;50187;50.492;12.134;2023-07-09T01:01:58;4.37;;;4.07;;
20159;SDS011;50187;50.492;12.134;2023-07-09T01:04:26;3.47;;;3.27;;
20159;SDS011;50187;50.492;12.134;2023-07-09T01:06:55;3.73;;;3.43;;
20159;SDS011;50187;50.492;12.134;2023-07-09T01:09:23;3.60;;;3.30;;
20159;SDS011;50187;50.492;12.134;2023-07-09T01:11:51;3.60;;;3.40;;
20159;SDS011;50187;50.492;12.134;2023-07-09T01:14:22;3.57;;;3.27;;
20159;SDS011;50187;50.492;12.134;2023-07-09T01:16:54;5.23;;;3.83;;
20159;SDS011;50187;50.492;12.134;2023-07-09T01:19:25;4.07;;;3.77;;
20159;SDS011;50187;50.492;12.134;2023-07-09T01:21:58;3.60;;;3.30;;
20159;SDS011;50187;50.492;12.134;2023-07-09T01:27:38;4.10;;;3.70;;
20159;SDS011;50187;50.492;12.134;2023-07-09T01:30:09;3.73;;;3.43;;
20159;SDS011;50187;50.492;12.134;2023-07-09T01:32:41;3.70;;;3.40;;
20159;SDS011;50187;50.492;12.134;2023-07-09T01:35:13;4.37;;;3.97;;
20159;SDS011;50187;50.492;12.134;2023-07-09T01:37:41;3.73;;;3.50;;
20159;SDS011;50187;50.492;12.134;2023-07-09T01:40:09;3.73;;;3.43;;
20159;SDS011;50187;50.492;12.134;2023-07-09T01:42:55;3.50;;;3.30;;
20159;SDS011;50187;50.492;12.134;2023-07-09T01:45:26;4.03;;;3.73;;
20159;SDS011;50187;50.492;12.134;2023-07-09T01:47:54;3.80;;;3.57;;
20159;SDS011;50187;50.492;12.134;2023-07-09T01:50:22;3.57;;;3.33;;
20159;SDS011;50187;50.492;12.134;2023-07-09T01:52:51;3.90;;;3.60;;
20159;SDS011;50187;50.492;12.134;2023-07-09T01:55:18;4.20;;;3.90;;
20159;SDS011;50187;50.492;12.134;2023-07-09T01:57:44;3.50;;;3.30;;
20159;SDS011;50187;50.492;12.134;2023-07-09T02:00:13;3.57;;;3.37;;
20159;SDS011;50187;50.492;12.134;2023-07-09T02:02:43;3.63;;;3.33;;
20159;SDS011;50187;50.492;12.134;2023-07-09T02:05:13;3.70;;;3.40;;
20159;SDS011;50187;50.492;12.134;2023-07-09T02:07:43;3.97;;;3.70;;
20159;SDS011;50187;50.492;12.134;2023-07-09T02:10:11;3.90;;;3.60;;
20159;SDS011;50187;50.492;12.134;2023-07-09T02:12:39;4.10;;;3.80;;
20159;SDS011;50187;50.492;12.134;2023-07-09T02:15:05;4.10;;;3.80;;
20159;SDS011;50187;50.492;12.134;2023-07-09T02:17:34;4.10;;;3.80;;
20159;SDS011;50187;50.492;12.134;2023-07-09T02:20:01;3.33;;;3.13;;
20159;SDS011;50187;50.492;12.134;2023-07-09T02:22:30;4.23;;;3.90;;
20159;SDS011;50187;50.492;12.134;2023-07-09T02:24:57;3.80;;;3.53;;
20159;SDS011;50187;50.492;12.134;2023-07-09T02:27:24;4.50;;;3.73;;
20159;SDS011;50187;50.492;12.134;2023-07-09T02:29:50;3.60;;;3.30;;
20159;SDS011;50187;50.492;12.134;2023-07-09T02:32:25;3.90;;;3.60;;
20159;SDS011;50187;50.492;12.134;2023-07-09T02:34:53;4.33;;;4.03;;
20159;SDS011;50187;50.492;12.134;2023-07-09T02:37:23;3.43;;;3.23;;
20159;SDS011;50187;50.492;12.134;2023-07-09T02:39:51;3.87;;;3.67;;
20159;SDS011;50187;50.492;12.134;2023-07-09T02:42:19;3.80;;;3.47;;
20159;SDS011;50187;50.492;12.134;2023-07-09T02:44:49;3.63;;;3.33;;
20159;SDS011;50187;50.492;12.134;2023-07-09T02:47:17;3.77;;;3.57;;
20159;SDS011;50187;50.492;12.134;2023-07-09T02:49:45;3.80;;;3.50;;
20159;SDS011;50187;50.492;12.134;2023-07-09T02:52:11;4.00;;;3.70;;
20159;SDS011;50187;50.492;12.134;2023-07-09T02:54:41;3.60;;;3.40;;
20159;SDS011;50187;50.492;12.134;2023-07-09T02:57:08;4.00;;;3.70;;
20159;SDS011;50187;50.492;12.134;2023-07-09T02:59:35;3.73;;;3.43;;
20159;SDS011;50187;50.492;12.134;2023-07-09T03:02:01;4.23;;;3.93;;
20159;SDS011;50187;50.492;12.134;2023-07-09T03:04:28;3.83;;;3.57;;
20159;SDS011;50187;50.492;12.134;2023-07-09T03:06:57;4.20;;;3.90;;
20159;SDS011;50187;50.492;12.134;2023-07-09T03:09:26;3.53;;;3.33;;
20159;SDS011;50187;50.492;12.134;2023-07-09T03:11:53;4.03;;;3.73;;
20159;SDS011;50187;50.492;12.134;2023-07-09T03:14:20;4.43;;;4.13;;
20159;SDS011;50187;50.492;12.134;2023-07-09T03:16:47;3.67;;;3.43;;
20159;SDS011;50187;50.492;12.134;2023-07-09T03:19:14;3.87;;;3.60;;
20159;SDS011;50187;50.492;12.134;2023-07-09T03:21:40;3.93;;;3.73;;
20159;SDS011;50187;50.492;12.134;2023-07-09T03:24:07;3.73;;;3.43;;
20159;SDS011;50187;50.492;12.134;2023-07-09T03:26:34;4.60;;;4.20;;
20159;SDS011;50187;50.492;12.134;2023-07-09T03:29:01;4.30;;;4.00;;
20159;SDS011;50187;50.492;12.134;2023-07-09T03:31:28;4.40;;;4.10;;
20159;SDS011;50187;50.492;12.134;2023-07-09T03:33:57;3.43;;;3.23;;
20159;SDS011;50187;50.492;12.134;2023-07-09T03:36:24;3.67;;;3.47;;
20159;SDS011;50187;50.492;12.134;2023-07-09T03:38:50;3.90;;;3.60;;
20159;SDS011;50187;50.492;12.134;2023-07-09T03:41:17;3.60;;;3.40;;
20159;SDS011;50187;50.492;12.134;2023-07-09T03:43:44;4.03;;;3.73;;
20159;SDS011;50187;50.492;12.134;2023-07-09T03:46:12;3.93;;;3.63;;
20159;SDS011;50187;50.492;12.134;2023-07-09T03:48:39;4.13;;;3.83;;
20159;SDS011;50187;50.492;12.134;2023-07-09T03:51:06;4.00;;;3.70;;
20159;SDS011;50187;50.492;12.134;2023-07-09T03:53:32;3.53;;;3.33;;
20159;SDS011;50187;50.492;12.134;2023-07-09T03:55:59;4.10;;;3.80;;
20159;SDS011;50187;50.492;12.134;2023-07-09T03:58:27;3.77;;;3.53;;
20159;SDS011;50187;50.492;12.134;2023-07-09T04:00:56;4.07;;;3.67;;
20159;SDS011;50187;50.492;12.134;2023-07-09T04:03:23;4.00;;;3.70;;
20159;SDS011;50187;50.492;12.134;2023-07-09T04:05:50;4.27;;;3.97;;
20159;SDS011;50187;50.492;12.134;2023-07-09T04:08:17;3.90;;;3.60;;
20159;SDS011;50187;50.492;12.134;2023-07-09T04:10:44;4.30;;;4.00;;
20159;SDS011;50187;50.492;12.134;2023-07-09T04:13:11;4.40;;;4.10;;
20159;SDS011;50187;50.492;12.134;2023-07-09T04:15:37;3.83;;;3.43;;
20159;SDS011;50187;50.492;12.134;2023-07-09T04:18:04;4.13;;;3.83;;
20159;SDS011;50187;50.492;12.134;2023-07-09T04:20:31;4.13;;;3.83;;
20159;SDS011;50187;50.492;12.134;2023-07-09T04:22:57;3.87;;;3.57;;
20159;SDS011;50187;50.492;12.134;2023-07-09T04:25:24;4.47;;;4.03;;
20159;SDS011;50187;50.492;12.134;2023-07-09T04:27:51;3.97;;;3.67;;
20159;SDS011;50187;50.492;12.134;2023-07-09T04:30:17;3.90;;;3.60;;
20159;SDS011;50187;50.492;12.134;2023-07-09T04:32:44;3.43;;;3.23;;
20159;SDS011;50187;50.492;12.134;2023-07-09T04:35:14;3.90;;;3.60;;
20159;SDS011;50187;50.492;12.134;2023-07-09T04:37:41;3.80;;;3.50;;
20159;SDS011;50187;50.492;12.134;2023-07-09T04:40:09;3.47;;;3.27;;
20159;SDS011;50187;50.492;12.134;2023-07-09T04:42:39;4.00;;;3.70;;
20159;SDS011;50187;50.492;12.134;2023-07-09T04:45:07;3.97;;;3.70;;
20159;SDS011;50187;50.492;12.134;2023-07-09T04:47:35;3.93;;;3.73;;
20159;SDS011;50187;50.492;12.134;2023-07-09T04:50:02;3.50;;;3.30;;
20159;SDS011;50187;50.492;12.134;2023-07-09T04:52:30;4.10;;;3.80;;
20159;SDS011;50187;50.492;12.134;2023-07-09T04:54:57;4.43;;;3.97;;
20159;SDS011;50187;50.492;12.134;2023-07-09T04:57:24;4.07;;;3.77;;
20159;SDS011;50187;50.492;12.134;2023-07-09T04:59:52;3.93;;;3.63;;
20159;SDS011;50187;50.492;12.134;2023-07-09T05:02:19;3.97;;;3.67;;
20159;SDS011;50187;50.492;12.134;2023-07-09T05:04:45;4.07;;;3.77;;
20159;SDS011;50187;50.492;12.134;2023-07-09T05:07:12;3.60;;;3.30;;
20159;SDS011;50187;50.492;12.134;2023-07-09T05:09:39;3.80;;;3.50;;
20159;SDS011;50187;50.492;12.134;2023-07-09T05:12:05;4.10;;;3.80;;
20159;SDS011;50187;50.492;12.134;2023-07-09T05:14:33;3.87;;;3.57;;
20159;SDS011;50187;50.492;12.134;2023-07-09T05:17:00;4.03;;;3.73;;
20159;SDS011;50187;50.492;12.134;2023-07-09T05:19:26;4.00;;;3.70;;
20159;SDS011;50187;50.492;12.134;2023-07-09T05:21:53;4.40;;;4.00;;
20159;SDS011;50187;50.492;12.134;2023-07-09T05:24:19;3.60;;;3.40;;
20159;SDS011;50187;50.492;12.134;2023-07-09T05:26:46;4.17;;;3.87;;
20159;SDS011;50187;50.492;12.134;2023-07-09T05:29:13;3.73;;;3.43;;
20159;SDS011;50187;50.492;12.134;2023-07-09T05:31:39;3.77;;;3.47;;
20159;SDS011;50187;50.492;12.134;2023-07-09T05:34:08;4.00;;;3.60;;
20159;SDS011;50187;50.492;12.134;2023-07-09T05:36:35;4.07;;;3.77;;
20159;SDS011;50187;50.492;12.134;2023-07-09T05:39:02;3.70;;;3.50;;
20159;SDS011;50187;50.492;12.134;2023-07-09T05:41:28;3.60;;;3.40;;
20159;SDS011;50187;50.492;12.134;2023-07-09T05:43:55;3.80;;;3.50;;
20159;SDS011;50187;50.492;12.134;2023-07-09T05:46:22;4.40;;;4.10;;
20159;SDS011;50187;50.492;12.134;2023-07-09T05:48:49;3.67;;;3.47;;
20159;SDS011;50187;50.492;12.134;2023-07-09T05:51:16;3.30;;;3.10;;
20159;SDS011;50187;50.492;12.134;2023-07-09T05:53:43;3.60;;;3.40;;
20159;SDS011;50187;50.492;12.134;2023-07-09T05:56:10;4.20;;;3.90;;
20159;SDS011;50187;50.492;12.134;2023-07-09T05:58:37;3.90;;;3.60;;
20159;SDS011;50187;50.492;12.134;2023-07-09T06:01:03;3.93;;;3.73;;
20159;SDS011;50187;50.492;12.134;2023-07-09T06:03:30;3.43;;;3.23;;
20159;SDS011;50187;50.492;12.134;2023-07-09T06:05:57;3.97;;;3.60;;
20159;SDS011;50187;50.492;12.134;2023-07-09T06:08:27;3.80;;;3.57;;
20159;SDS011;50187;50.492;12.134;2023-07-09T06:10:58;3.53;;;3.30;;
20159;SDS011;50187;50.492;12.134;2023-07-09T06:13:26;3.77;;;3.47;;
20159;SDS011;50187;50.492;12.134;2023-07-09T06:15:54;3.80;;;3.60;;
20159;SDS011;50187;50.492;12.134;2023-07-09T06:18:22;4.17;;;3.87;;
20159;SDS011;50187;50.492;12.134;2023-07-09T06:20:51;3.77;;;3.47;;
20159;SDS011;50187;50.492;12.134;2023-07-09T06:23:20;3.90;;;3.60;;
20159;SDS011;50187;50.492;12.134;2023-07-09T06:25:47;4.10;;;3.80;;
20159;SDS011;50187;50.492;12.134;2023-07-09T06:28:15;3.77;;;3.47;;
20159;SDS011;50187;50.492;12.134;2023-07-09T06:30:43;3.60;;;3.40;;
20159;SDS011;50187;50.492;12.134;2023-07-09T06:33:11;3.57;;;3.37;;
20159;SDS011;50187;50.492;12.134;2023-07-09T06:35:46;3.50;;;3.20;;
20159;SDS011;50187;50.492;12.134;2023-07-09T06:38:14;3.43;;;3.23;;
20159;SDS011;50187;50.492;12.134;2023-07-09T06:40:41;3.67;;;3.37;;
20159;SDS011;50187;50.492;12.134;2023-07-09T06:43:08;4.00;;;3.70;;
20159;SDS011;50187;50.492;12.134;2023-07-09T06:45:37;3.57;;;3.37;;
20159;SDS011;50187;50.492;12.134;2023-07-09T06:48:05;3.70;;;3.50;;
20159;SDS011;50187;50.492;12.134;2023-07-09T06:50:32;3.37;;;3.17;;
20159;SDS011;50187;50.492;12.134;2023-07-09T06:53:00;3.57;;;3.37;;
20159;SDS011;50187;50.492;12.134;2023-07-09T06:55:27;3.30;;;3.10;;
20159;SDS011;50187;50.492;12.134;2023-07-09T06:57:54;3.67;;;3.47;;
20159;SDS011;50187;50.492;12.134;2023-07-09T07:00:20;3.13;;;2.93;;
20159;SDS011;50187;50.492;12.134;2023-07-09T07:02:47;3.40;;;3.20;;
20159;SDS011;50187;50.492;12.134;2023-07-09T07:05:14;3.57;;;3.27;;
20159;SDS011;50187;50.492;12.134;2023-07-09T07:07:41;3.30;;;3.10;;
20159;SDS011;50187;50.492;12.134;2023-07-09T07:10:08;3.80;;;3.60;;
20159;SDS011;50187;50.492;12.134;2023-07-09T07:12:42;3.53;;;3.33;;
20159;SDS011;50187;50.492;12.134;2023-07-09T07:15:11;3.87;;;3.57;;
20159;SDS011;50187;50.492;12.134;2023-07-09T07:17:39;3.60;;;3.40;;
20159;SDS011;50187;50.492;12.134;2023-07-09T07:20:06;3.23;;;3.03;;
20159;SDS011;50187;50.492;12.134;2023-07-09T07:22:38;3.37;;;3.17;;
20159;SDS011;50187;50.492;12.134;2023-07-09T07:25:05;3.30;;;3.10;;
20159;SDS011;50187;50.492;12.134;2023-07-09T07:27:34;3.33;;;3.07;;
20159;SDS011;50187;50.492;12.134;2023-07-09T07:30:02;3.40;;;3.20;;
20159;SDS011;50187;50.492;12.134;2023-07-09T07:32:29;3.30;;;3.10;;
20159;SDS011;50187;50.492;12.134;2023-07-09T07:34:55;3.60;;;3.40;;
20159;SDS011;50187;50.492;12.134;2023-07-09T07:37:22;3.83;;;3.53;;
20159;SDS011;50187;50.492;12.134;2023-07-09T07:39:48;3.73;;;3.47;;
20159;SDS011;50187;50.492;12.134;2023-07-09T07:42:15;3.23;;;3.03;;
20159;SDS011;50187;50.492;12.134;2023-07-09T07:44:43;3.50;;;3.30;;
20159;SDS011;50187;50.492;12.134;2023-07-09T07:47:10;3.80;;;3.60;;
20159;SDS011;50187;50.492;12.134;2023-07-09T07:49:38;3.73;;;3.53;;
20159;SDS011;50187;50.492;12.134;2023-07-09T07:52:05;3.13;;;2.90;;
20159;SDS011;50187;50.492;12.134;2023-07-09T07:54:33;3.60;;;3.40;;
20159;SDS011;50187;50.492;12.134;2023-07-09T07:57:01;3.57;;;3.17;;
20159;SDS011;50187;50.492;12.134;2023-07-09T07:59:28;3.50;;;3.30;;
20159;SDS011;50187;50.492;12.134;2023-07-09T08:02:01;3.30;;;3.10;;
20159;SDS011;50187;50.492;12.134;2023-07-09T08:04:28;3.07;;;2.90;;
20159;SDS011;50187;50.492;12.134;2023-07-09T08:06:55;3.40;;;3.20;;
20159;SDS011;50187;50.492;12.134;2023-07-09T08:09:24;3.00;;;2.80;;
20159;SDS011;50187;50.492;12.134;2023-07-09T08:11:51;2.90;;;2.70;;
20159;SDS011;50187;50.492;12.134;2023-07-09T08:14:18;3.30;;;3.10;;
20159;SDS011;50187;50.492;12.134;2023-07-09T08:16:44;3.87;;;3.57;;
20159;SDS011;50187;50.492;12.134;2023-07-09T08:19:11;3.20;;;3.00;;
20159;SDS011;50187;50.492;12.134;2023-07-09T08:21:38;3.13;;;2.93;;
20159;SDS011;50187;50.492;12.134;2023-07-09T08:24:05;3.30;;;3.10;;
20159;SDS011;50187;50.492;12.134;2023-07-09T08:26:32;3.53;;;3.33;;
20159;SDS011;50187;50.492;12.134;2023-07-09T08:28:59;3.20;;;3.00;;
20159;SDS011;50187;50.492;12.134;2023-07-09T08:31:25;3.03;;;2.83;;
20159;SDS011;50187;50.492;12.134;2023-07-09T08:33:52;3.57;;;3.30;;
20159;SDS011;50187;50.492;12.134;2023-07-09T08:36:19;3.43;;;3.23;;
20159;SDS011;50187;50.492;12.134;2023-07-09T08:38:45;3.23;;;3.03;;
20159;SDS011;50187;50.492;12.134;2023-07-09T08:41:19;3.50;;;3.30;;
20159;SDS011;50187;50.492;12.134;2023-07-09T08:44:07;3.13;;;2.93;;
20159;SDS011;50187;50.492;12.134;2023-07-09T08:46:52;3.30;;;3.00;;
20159;SDS011;50187;50.492;12.134;2023-07-09T08:49:33;3.43;;;3.23;;
20159;SDS011;50187;50.492;12.134;2023-07-09T08:52:45;3.47;;;3.17;;
20159;SDS011;50187;50.492;12.134;2023-07-09T08:57:41;3.30;;;3.10;;
20159;SDS011;50187;50.492;12.134;2023-07-09T09:00:21;3.13;;;2.93;;
20159;SDS011;50187;50.492;12.134;2023-07-09T09:03:03;2.93;;;2.80;;
20159;SDS011;50187;50.492;12.134;2023-07-09T09:05:38;3.20;;;3.00;;
20159;SDS011;50187;50.492;12.134;2023-07-09T09:08:22;3.20;;;3.00;;
20159;SDS011;50187;50.492;12.134;2023-07-09T09:13:37;3.03;;;2.83;;
20159;SDS011;50187;50.492;12.134;2023-07-09T09:16:09;3.10;;;2.90;;
20159;SDS011;50187;50.492;12.134;2023-07-09T09:18:42;3.10;;;2.90;;
20159;SDS011;50187;50.492;12.134;2023-07-09T09:21:13;3.03;;;2.83;;
20159;SDS011;50187;50.492;12.134;2023-07-09T09:23:51;2.70;;;2.60;;
20159;SDS011;50187;50.492;12.134;2023-07-09T09:26:24;3.10;;;2.90;;
20159;SDS011;50187;50.492;12.134;2023-07-09T09:28:56;3.10;;;2.90;;
20159;SDS011;50187;50.492;12.134;2023-07-09T09:31:27;3.37;;;3.17;;
20159;SDS011;50187;50.492;12.134;2023-07-09T09:33:56;2.73;;;2.63;;
20159;SDS011;50187;50.492;12.134;2023-07-09T09:36:23;2.77;;;2.57;;
20159;SDS011;50187;50.492;12.134;2023-07-09T09:38:52;3.10;;;2.90;;
20159;SDS011;50187;50.492;12.134;2023-07-09T09:41:23;3.23;;;3.03;;
20159;SDS011;50187;50.492;12.134;2023-07-09T09:43:53;3.13;;;2.83;;
20159;SDS011;50187;50.492;12.134;2023-07-09T09:46:22;3.00;;;2.80;;
20159;SDS011;50187;50.492;12.134;2023-07-09T09:48:53;2.40;;;2.30;;
20159;SDS011;50187;50.492;12.134;2023-07-09T09:51:22;2.80;;;2.60;;
20159;SDS011;50187;50.492;12.134;2023-07-09T09:53:50;3.20;;;3.00;;
20159;SDS011;50187;50.492;12.134;2023-07-09T09:56:27;3.37;;;3.07;;
20159;SDS011;50187;50.492;12.134;2023-07-09T09:58:55;3.00;;;2.80;;
20159;SDS011;50187;50.492;12.134;2023-07-09T10:01:28;3.57;;;3.37;;
20159;SDS011;50187;50.492;12.134;2023-07-09T10:04:04;3.00;;;2.80;;
20159;SDS011;50187;50.492;12.134;2023-07-09T10:06:36;3.00;;;2.80;;
20159;SDS011;50187;50.492;12.134;2023-07-09T10:12:10;3.07;;;2.87;;
20159;SDS011;50187;50.492;12.134;2023-07-09T10:17:36;2.77;;;2.67;;
20159;SDS011;50187;50.492;12.134;2023-07-09T10:23:44;3.17;;;2.97;;
20159;SDS011;50187;50.492;12.134;2023-07-09T10:26:14;3.00;;;2.80;;
20159;SDS011;50187;50.492;12.134;2023-07-09T10:29:14;3.27;;;3.07;;
20159;SDS011;50187;50.492;12.134;2023-07-09T10:35:06;2.90;;;2.70;;
20159;SDS011;50187;50.492;12.134;2023-07-09T10:40:42;2.73;;;2.57;;
20159;SDS011;50187;50.492;12.134;2023-07-09T10:43:59;2.90;;;2.70;;
20159;SDS011;50187;50.492;12.134;2023-07-09T10:46:06;3.17;;;2.97;;
20159;SDS011;50187;50.492;12.134;2023-07-09T10:48:40;3.03;;;2.83;;
20159;SDS011;50187;50.492;12.134;2023-07-09T10:51:16;2.77;;;2.57;;
20159;SDS011;50187;50.492;12.134;2023-07-09T10:53:56;2.70;;;2.60;;
20159;SDS011;50187;50.492;12.134;2023-07-09T10:56:47;3.10;;;2.90;;
20159;SDS011;50187;50.492;12.134;2023-07-09T10:59:33;2.83;;;2.70;;
20159;SDS011;50187;50.492;12.134;2023-07-09T11:02:24;2.77;;;2.67;;
20159;SDS011;50187;50.492;12.134;2023-07-09T11:04:56;3.10;;;2.90;;
20159;SDS011;50187;50.492;12.134;2023-07-09T11:07:29;3.23;;;2.97;;
20159;SDS011;50187;50.492;12.134;2023-07-09T11:10:00;3.20;;;3.00;;
20159;SDS011;50187;50.492;12.134;2023-07-09T11:12:38;2.90;;;2.70;;
20159;SDS011;50187;50.492;12.134;2023-07-09T11:15:16;2.63;;;2.50;;
20159;SDS011;50187;50.492;12.134;2023-07-09T11:17:47;2.90;;;2.70;;
20159;SDS011;50187;50.492;12.134;2023-07-09T11:20:33;2.80;;;2.60;;
20159;SDS011;50187;50.492;12.134;2023-07-09T11:25:41;2.70;;;2.50;;
20159;SDS011;50187;50.492;12.134;2023-07-09T11:28:09;2.80;;;2.60;;
20159;SDS011;50187;50.492;12.134;2023-07-09T11:30:52;3.13;;;2.93;;
20159;SDS011;50187;50.492;12.134;2023-07-09T11:33:28;3.13;;;2.93;;
20159;SDS011;50187;50.492;12.134;2023-07-09T11:36:09;3.00;;;2.80;;
20159;SDS011;50187;50.492;12.134;2023-07-09T11:38:44;2.80;;;2.60;;
20159;SDS011;50187;50.492;12.134;2023-07-09T11:41:24;3.07;;;2.83;;
20159;SDS011;50187;50.492;12.134;2023-07-09T11:44:19;3.30;;;3.10;;
20159;SDS011;50187;50.492;12.134;2023-07-09T11:46:57;3.03;;;2.83;;
20159;SDS011;50187;50.492;12.134;2023-07-09T11:49:26;2.53;;;2.43;;
20159;SDS011;50187;50.492;12.134;2023-07-09T11:51:59;2.97;;;2.60;;
20159;SDS011;50187;50.492;12.134;2023-07-09T11:54:33;3.00;;;2.80;;
20159;SDS011;50187;50.492;12.134;2023-07-09T11:57:03;2.87;;;2.63;;
20159;SDS011;50187;50.492;12.134;2023-07-09T11:59:42;3.10;;;2.80;;
20159;SDS011;50187;50.492;12.134;2023-07-09T12:02:17;3.17;;;2.97;;
20159;SDS011;50187;50.492;12.134;2023-07-09T12:04:50;2.57;;;2.47;;
20159;SDS011;50187;50.492;12.134;2023-07-09T12:07:20;3.00;;;2.80;;
20159;SDS011;50187;50.492;12.134;2023-07-09T12:09:50;2.90;;;2.70;;
20159;SDS011;50187;50.492;12.134;2023-07-09T12:12:19;2.93;;;2.63;;
20159;SDS011;50187;50.492;12.134;2023-07-09T12:14:48;2.63;;;2.43;;
20159;SDS011;50187;50.492;12.134;2023-07-09T12:17:18;3.00;;;2.80;;
20159;SDS011;50187;50.492;12.134;2023-07-09T12:19:45;2.60;;;2.50;;
20159;SDS011;50187;50.492;12.134;2023-07-09T12:22:15;3.13;;;2.93;;
20159;SDS011;50187;50.492;12.134;2023-07-09T12:24:46;3.37;;;3.10;;
20159;SDS011;50187;50.492;12.134;2023-07-09T12:27:24;3.30;;;3.00;;
20159;SDS011;50187;50.492;12.134;2023-07-09T12:29:54;3.33;;;3.13;;
20159;SDS011;50187;50.492;12.134;2023-07-09T12:32:23;2.90;;;2.70;;
20159;SDS011;50187;50.492;12.134;2023-07-09T12:34:54;3.13;;;2.93;;
20159;SDS011;50187;50.492;12.134;2023-07-09T12:37:22;2.90;;;2.70;;
20159;SDS011;50187;50.492;12.134;2023-07-09T12:39:54;2.80;;;2.60;;
20159;SDS011;50187;50.492;12.134;2023-07-09T12:42:24;3.00;;;2.80;;
20159;SDS011;50187;50.492;12.134;2023-07-09T12:45:00;3.00;;;2.80;;
20159;SDS011;50187;50.492;12.134;2023-07-09T12:47:27;3.10;;;2.80;;
20159;SDS011;50187;50.492;12.134;2023-07-09T12:49:59;3.07;;;2.87;;
20159;SDS011;50187;50.492;12.134;2023-07-09T12:52:29;3.20;;;3.00;;
20159;SDS011;50187;50.492;12.134;2023-07-09T12:54:59;3.00;;;2.80;;
20159;SDS011;50187;50.492;12.134;2023-07-09T12:57:28;3.20;;;3.00;;
20159;SDS011;50187;50.492;12.134;2023-07-09T12:59:56;2.97;;;2.77;;
20159;SDS011;50187;50.492;12.134;2023-07-09T13:02:24;3.33;;;3.13;;
20159;SDS011;50187;50.492;12.134;2023-07-09T13:05:00;2.87;;;2.67;;
20159;SDS011;50187;50.492;12.134;2023-07-09T13:07:32;2.77;;;2.57;;
20159;SDS011;50187;50.492;12.134;2023-07-09T13:10:05;3.77;;;3.50;;
20159;SDS011;50187;50.492;12.134;2023-07-09T13:12:40;2.93;;;2.70;;
20159;SDS011;50187;50.492;12.134;2023-07-09T13:17:56;3.07;;;2.87;;
20159;SDS011;50187;50.492;12.134;2023-07-09T13:20:29;2.97;;;2.77;;
20159;SDS011;50187;50.492;12.134;2023-07-09T13:22:57;3.33;;;3.03;;
20159;SDS011;50187;50.492;12.134;2023-07-09T13:25:24;3.10;;;2.90;;
20159;SDS011;50187;50.492;12.134;2023-07-09T13:28:34;2.83;;;2.63;;
20159;SDS011;50187;50.492;12.134;2023-07-09T13:31:11;2.87;;;2.67;;
20159;SDS011;50187;50.492;12.134;2023-07-09T13:33:45;2.93;;;2.73;;
20159;SDS011;50187;50.492;12.134;2023-07-09T13:36:26;2.67;;;2.57;;
20159;SDS011;50187;50.492;12.134;2023-07-09T13:38:52;3.10;;;2.80;;
20159;SDS011;50187;50.492;12.134;2023-07-09T13:41:19;3.70;;;3.40;;
20159;SDS011;50187;50.492;12.134;2023-07-09T13:43:49;2.77;;;2.57;;
20159;SDS011;50187;50.492;12.134;2023-07-09T13:46:16;3.20;;;2.90;;
20159;SDS011;50187;50.492;12.134;2023-07-09T13:48:43;3.33;;;3.13;;
20159;SDS011;50187;50.492;12.134;2023-07-09T13:51:19;3.37;;;3.17;;
20159;SDS011;50187;50.492;12.134;2023-07-09T13:53:50;2.80;;;2.60;;
20159;SDS011;50187;50.492;12.134;2023-07-09T13:56:19;3.43;;;3.13;;
20159;SDS011;50187;50.492;12.134;2023-07-09T13:58:46;3.10;;;2.90;;
20159;SDS011;50187;50.492;12.134;2023-07-09T14:01:14;3.23;;;3.03;;
20159;SDS011;50187;50.492;12.134;2023-07-09T14:03:47;2.87;;;2.67;;
20159;SDS011;50187;50.492;12.134;2023-07-09T14:06:16;3.93;;;3.63;;
20159;SDS011;50187;50.492;12.134;2023-07-09T14:08:44;3.00;;;2.80;;
20159;SDS011;50187;50.492;12.134;2023-07-09T14:11:11;3.10;;;2.90;;
20159;SDS011;50187;50.492;12.134;2023-07-09T14:13:39;3.37;;;3.17;;
20159;SDS011;50187;50.492;12.134;2023-07-09T14:16:10;3.67;;;3.47;;
20159;SDS011;50187;50.492;12.134;2023-07-09T14:18:38;3.03;;;2.80;;
20159;SDS011;50187;50.492;12.134;2023-07-09T14:21:15;3.37;;;3.07;;
20159;SDS011;50187;50.492;12.134;2023-07-09T14:23:45;3.37;;;3.07;;
20159;SDS011;50187;50.492;12.134;2023-07-09T14:26:11;2.97;;;2.77;;
20159;SDS011;50187;50.492;12.134;2023-07-09T14:28:38;3.80;;;2.90;;
20159;SDS011;50187;50.492;12.134;2023-07-09T14:31:22;3.27;;;3.07;;
20159;SDS011;50187;50.492;12.134;2023-07-09T14:33:52;3.07;;;2.87;;
20159;SDS011;50187;50.492;12.134;2023-07-09T14:36:19;3.30;;;3.10;;
20159;SDS011;50187;50.492;12.134;2023-07-09T14:38:45;3.20;;;3.00;;
20159;SDS011;50187;50.492;12.134;2023-07-09T14:41:19;3.33;;;3.13;;
20159;SDS011;50187;50.492;12.134;2023-07-09T14:43:49;3.70;;;3.43;;
20159;SDS011;50187;50.492;12.134;2023-07-09T14:46:16;2.93;;;2.73;;
20159;SDS011;50187;50.492;12.134;2023-07-09T14:48:42;3.13;;;2.93;;
20159;SDS011;50187;50.492;12.134;2023-07-09T14:51:13;3.13;;;2.93;;
20159;SDS011;50187;50.492;12.134;2023-07-09T14:53:42;3.00;;;2.80;;
20159;SDS011;50187;50.492;12.134;2023-07-09T14:56:11;2.80;;;2.60;;
20159;SDS011;50187;50.492;12.134;2023-07-09T14:58:40;3.40;;;3.10;;
20159;SDS011;50187;50.492;12.134;2023-07-09T15:01:11;3.10;;;2.90;;
20159;SDS011;50187;50.492;12.134;2023-07-09T15:03:39;2.73;;;2.53;;
20159;SDS011;50187;50.492;12.134;2023-07-09T15:06:09;3.00;;;2.80;;
20159;SDS011;50187;50.492;12.134;2023-07-09T15:08:36;3.47;;;3.17;;
20159;SDS011;50187;50.492;12.134;2023-07-09T15:11:03;3.03;;;2.83;;
20159;SDS011;50187;50.492;12.134;2023-07-09T15:13:31;2.97;;;2.77;;
20159;SDS011;50187;50.492;12.134;2023-07-09T15:16:09;3.30;;;3.10;;
20159;SDS011;50187;50.492;12.134;2023-07-09T15:18:41;3.40;;;3.20;;
20159;SDS011;50187;50.492;12.134;2023-07-09T15:21:08;3.23;;;2.93;;
20159;SDS011;50187;50.492;12.134;2023-07-09T15:23:38;3.00;;;2.80;;
20159;SDS011;50187;50.492;12.134;2023-07-09T15:26:12;3.13;;;2.93;;